sensor_id;sensor_type;location;lat;lon;timestamp;temperature;humidity
18950;DHT22;9608;49.288;8.130;2022-11-20T00:00:31;4.10;99.90
18950;DHT22;9608;49.288;8.130;2022-11-20T00:02:58;4.20;99.90
18950;DHT22;9608;49.288;8.130;2022-11-20T00:05:24;4.30;99.90
18950;DHT22;9608;49.288;8.130;2022-11-20T00:07:51;4.30;99.90
18950;DHT22;9608;49.288;8.130;2022-11-20T00:10:18;4.30;99.90
18950;DHT22;9608;49.288;8.130;2022-11-20T00:12:44;4.30;99.90
18950;DHT22;9608;49.288;8.130;2022-11-20T00:15:11;4.20;99.90
18950;DHT22;9608;49.288;8.130;2022-11-20T00:17:39;4.30;99.90
18950;DHT22;9608;49.288;8.130;2022-11-20T00:20:07;4.40;99.90
18950;DHT22;9608;49.288;8.130;2022-11-20T00:22:35;4.40;99.90
18950;DHT22;9608;49.288;8.130;2022-11-20T00:25:01;4.30;99.90
18950;DHT22;9608;49.288;8.130;2022-11-20T00:27:28;4.30;99.90
18950;DHT22;9608;49.288;8.130;2022-11-20T00:29:55;4.30;99.90
18950;DHT22;9608;49.288;8.130;2022-11-20T00:32:21;4.30;99.90
18950;DHT22;9608;49.288;8.130;2022-11-20T00:34:50;4.30;99.90
18950;DHT22;9608;49.288;8.130;2022-11-20T00:37:16;4.40;99.90
18950;DHT22;9608;49.288;8.130;2022-11-20T00:39:43;4.40;99.90
18950;DHT22;9608;49.288;8.130;2022-11-20T00:42:10;4.30;99.90
18950;DHT22;9608;49.288;8.130;2022-11-20T00:44:37;4.30;99.90
18950;DHT22;9608;49.288;8.130;2022-11-20T00:47:04;4.30;99.90
18950;DHT22;9608;49.288;8.130;2022-11-20T00:49:31;4.30;99.90
18950;DHT22;9608;49.288;8.130;2022-11-20T00:51:59;4.30;99.90
18950;DHT22;9608;49.288;8.130;2022-11-20T00:54:25;4.30;99.90
18950;DHT22;9608;49.288;8.130;2022-11-20T00:56:52;4.40;99.90
18950;DHT22;9608;49.288;8.130;2022-11-20T00:59:19;4.30;99.90
18950;DHT22;9608;49.288;8.130;2022-11-20T01:01:46;4.50;99.90
18950;DHT22;9608;49.288;8.130;2022-11-20T01:04:12;4.50;99.90
18950;DHT22;9608;49.288;8.130;2022-11-20T01:06:39;4.50;99.90
18950;DHT22;9608;49.288;8.130;2022-11-20T01:09:11;4.40;99.90
18950;DHT22;9608;49.288;8.130;2022-11-20T01:11:40;4.40;99.90
18950;DHT22;9608;49.288;8.130;2022-11-20T01:14:10;4.30;99.90
18950;DHT22;9608;49.288;8.130;2022-11-20T01:16:39;4.20;99.90
18950;DHT22;9608;49.288;8.130;2022-11-20T01:19:09;4.10;99.90
18950;DHT22;9608;49.288;8.130;2022-11-20T01:21:38;4.10;99.90
18950;DHT22;9608;49.288;8.130;2022-11-20T01:24:06;4.10;99.90
18950;DHT22;9608;49.288;8.130;2022-11-20T01:26:36;4.00;99.90
18950;DHT22;9608;49.288;8.130;2022-11-20T01:29:04;4.00;99.90
18950;DHT22;9608;49.288;8.130;2022-11-20T01:31:32;4.00;99.90
18950;DHT22;9608;49.288;8.130;2022-11-20T01:34:00;3.90;99.90
18950;DHT22;9608;49.288;8.130;2022-11-20T01:36:29;4.00;99.90
18950;DHT22;9608;49.288;8.130;2022-11-20T01:38:58;4.00;99.90
18950;DHT22;9608;49.288;8.130;2022-11-20T01:41:27;4.00;99.90
18950;DHT22;9608;49.288;8.130;2022-11-20T01:44:15;4.00;99.90
18950;DHT22;9608;49.288;8.130;2022-11-20T01:46:50;3.90;99.90
18950;DHT22;9608;49.288;8.130;2022-11-20T01:49:21;4.00;99.90
18950;DHT22;9608;49.288;8.130;2022-11-20T01:51:52;4.00;99.90
18950;DHT22;9608;49.288;8.130;2022-11-20T01:54:25;4.00;99.90
18950;DHT22;9608;49.288;8.130;2022-11-20T01:56:55;4.10;99.90
18950;DHT22;9608;49.288;8.130;2022-11-20T01:59:24;4.10;99.90
18950;DHT22;9608;49.288;8.130;2022-11-20T02:01:52;4.10;99.90
18950;DHT22;9608;49.288;8.130;2022-11-20T02:04:20;4.10;99.90
18950;DHT22;9608;49.288;8.130;2022-11-20T02:06:48;4.10;99.90
18950;DHT22;9608;49.288;8.130;2022-11-20T02:09:16;4.00;99.90
18950;DHT22;9608;49.288;8.130;2022-11-20T02:11:43;4.00;99.90
18950;DHT22;9608;49.288;8.130;2022-11-20T02:14:10;4.00;99.90
18950;DHT22;9608;49.288;8.130;2022-11-20T02:16:40;4.00;99.90
18950;DHT22;9608;49.288;8.130;2022-11-20T02:19:16;4.00;99.90
18950;DHT22;9608;49.288;8.130;2022-11-20T02:21:49;4.10;99.90
18950;DHT22;9608;49.288;8.130;2022-11-20T02:24:21;4.20;99.90
18950;DHT22;9608;49.288;8.130;2022-11-20T02:26:51;4.30;99.90
18950;DHT22;9608;49.288;8.130;2022-11-20T02:29:24;4.30;99.90
18950;DHT22;9608;49.288;8.130;2022-11-20T02:31:53;4.40;99.90
18950;DHT22;9608;49.288;8.130;2022-11-20T02:34:21;4.40;99.90
18950;DHT22;9608;49.288;8.130;2022-11-20T02:36:48;4.40;99.90
18950;DHT22;9608;49.288;8.130;2022-11-20T02:39:16;4.40;99.90
18950;DHT22;9608;49.288;8.130;2022-11-20T02:41:44;4.40;99.90
18950;DHT22;9608;49.288;8.130;2022-11-20T02:44:11;4.50;99.90
18950;DHT22;9608;49.288;8.130;2022-11-20T02:46:38;4.50;99.90
18950;DHT22;9608;49.288;8.130;2022-11-20T02:49:05;4.50;99.90
18950;DHT22;9608;49.288;8.130;2022-11-20T02:51:32;4.50;99.90
18950;DHT22;9608;49.288;8.130;2022-11-20T02:53:58;4.40;99.90
18950;DHT22;9608;49.288;8.130;2022-11-20T02:56:25;4.50;99.90
18950;DHT22;9608;49.288;8.130;2022-11-20T02:58:53;4.40;99.90
18950;DHT22;9608;49.288;8.130;2022-11-20T03:01:21;4.40;99.90
18950;DHT22;9608;49.288;8.130;2022-11-20T03:03:48;4.50;99.90
18950;DHT22;9608;49.288;8.130;2022-11-20T03:06:15;4.50;99.90
18950;DHT22;9608;49.288;8.130;2022-11-20T03:08:42;4.60;99.90
18950;DHT22;9608;49.288;8.130;2022-11-20T03:11:09;4.60;99.90
18950;DHT22;9608;49.288;8.130;2022-11-20T03:13:36;4.60;99.90
18950;DHT22;9608;49.288;8.130;2022-11-20T03:16:09;4.70;99.90
18950;DHT22;9608;49.288;8.130;2022-11-20T03:18:37;4.70;99.90
18950;DHT22;9608;49.288;8.130;2022-11-20T03:21:04;4.70;99.90
18950;DHT22;9608;49.288;8.130;2022-11-20T03:23:33;4.70;99.90
18950;DHT22;9608;49.288;8.130;2022-11-20T03:26:14;4.70;99.90
18950;DHT22;9608;49.288;8.130;2022-11-20T03:28:41;4.50;99.90
18950;DHT22;9608;49.288;8.130;2022-11-20T03:31:11;4.50;99.90
18950;DHT22;9608;49.288;8.130;2022-11-20T03:33:39;4.50;99.90
18950;DHT22;9608;49.288;8.130;2022-11-20T03:36:08;4.50;99.90
18950;DHT22;9608;49.288;8.130;2022-11-20T03:38:36;4.50;99.90
18950;DHT22;9608;49.288;8.130;2022-11-20T03:41:04;4.40;99.90
18950;DHT22;9608;49.288;8.130;2022-11-20T03:43:32;4.20;99.90
18950;DHT22;9608;49.288;8.130;2022-11-20T03:45:59;4.20;99.90
18950;DHT22;9608;49.288;8.130;2022-11-20T03:48:28;4.20;99.90
18950;DHT22;9608;49.288;8.130;2022-11-20T03:51:07;4.20;99.90
18950;DHT22;9608;49.288;8.130;2022-11-20T03:53:33;4.30;99.90
18950;DHT22;9608;49.288;8.130;2022-11-20T03:56:00;4.40;99.90
18950;DHT22;9608;49.288;8.130;2022-11-20T03:58:27;4.40;99.90
18950;DHT22;9608;49.288;8.130;2022-11-20T04:00:54;4.30;99.90
18950;DHT22;9608;49.288;8.130;2022-11-20T04:03:20;4.40;99.90
18950;DHT22;9608;49.288;8.130;2022-11-20T04:05:48;4.50;99.90
18950;DHT22;9608;49.288;8.130;2022-11-20T04:08:15;4.50;99.90
18950;DHT22;9608;49.288;8.130;2022-11-20T04:10:42;4.50;99.90
18950;DHT22;9608;49.288;8.130;2022-11-20T04:13:08;4.60;99.90
18950;DHT22;9608;49.288;8.130;2022-11-20T04:15:35;4.60;99.90
18950;DHT22;9608;49.288;8.130;2022-11-20T04:18:02;4.60;99.90
18950;DHT22;9608;49.288;8.130;2022-11-20T04:20:28;4.60;99.90
18950;DHT22;9608;49.288;8.130;2022-11-20T04:22:57;4.70;99.90
18950;DHT22;9608;49.288;8.130;2022-11-20T04:25:23;4.80;99.90
18950;DHT22;9608;49.288;8.130;2022-11-20T04:27:50;4.70;99.90
18950;DHT22;9608;49.288;8.130;2022-11-20T04:30:17;4.60;99.90
18950;DHT22;9608;49.288;8.130;2022-11-20T04:32:43;4.60;99.90
18950;DHT22;9608;49.288;8.130;2022-11-20T04:35:10;4.60;99.90
18950;DHT22;9608;49.288;8.130;2022-11-20T04:37:37;4.50;99.90
18950;DHT22;9608;49.288;8.130;2022-11-20T04:40:06;4.40;99.90
18950;DHT22;9608;49.288;8.130;2022-11-20T04:42:32;4.30;99.90
18950;DHT22;9608;49.288;8.130;2022-11-20T04:44:59;4.20;99.90
18950;DHT22;9608;49.288;8.130;2022-11-20T04:47:26;4.20;99.90
18950;DHT22;9608;49.288;8.130;2022-11-20T04:49:52;4.30;99.90
18950;DHT22;9608;49.288;8.130;2022-11-20T04:52:19;4.20;99.90
18950;DHT22;9608;49.288;8.130;2022-11-20T04:54:46;4.30;99.90
18950;DHT22;9608;49.288;8.130;2022-11-20T04:57:14;4.30;99.90
18950;DHT22;9608;49.288;8.130;2022-11-20T04:59:41;4.20;99.90
18950;DHT22;9608;49.288;8.130;2022-11-20T05:02:08;4.20;99.90
18950;DHT22;9608;49.288;8.130;2022-11-20T05:04:35;4.20;99.90
18950;DHT22;9608;49.288;8.130;2022-11-20T05:07:02;4.30;99.90
18950;DHT22;9608;49.288;8.130;2022-11-20T05:09:29;4.30;99.90
18950;DHT22;9608;49.288;8.130;2022-11-20T05:11:56;4.40;99.90
18950;DHT22;9608;49.288;8.130;2022-11-20T05:14:24;4.40;99.90
18950;DHT22;9608;49.288;8.130;2022-11-20T05:16:51;4.40;99.90
18950;DHT22;9608;49.288;8.130;2022-11-20T05:19:17;4.50;99.90
18950;DHT22;9608;49.288;8.130;2022-11-20T05:21:44;4.60;99.90
18950;DHT22;9608;49.288;8.130;2022-11-20T05:24:11;4.60;99.90
18950;DHT22;9608;49.288;8.130;2022-11-20T05:26:38;4.60;99.90
18950;DHT22;9608;49.288;8.130;2022-11-20T05:29:04;4.60;99.90
18950;DHT22;9608;49.288;8.130;2022-11-20T05:31:33;4.60;99.90
18950;DHT22;9608;49.288;8.130;2022-11-20T05:33:59;4.70;99.90
18950;DHT22;9608;49.288;8.130;2022-11-20T05:36:26;4.70;99.90
18950;DHT22;9608;49.288;8.130;2022-11-20T05:38:53;4.80;99.90
18950;DHT22;9608;49.288;8.130;2022-11-20T05:41:20;4.90;99.90
18950;DHT22;9608;49.288;8.130;2022-11-20T05:43:48;4.80;99.90
18950;DHT22;9608;49.288;8.130;2022-11-20T05:46:16;4.70;99.90
18950;DHT22;9608;49.288;8.130;2022-11-20T05:48:46;4.80;99.90
18950;DHT22;9608;49.288;8.130;2022-11-20T05:51:15;4.80;99.90
18950;DHT22;9608;49.288;8.130;2022-11-20T05:53:42;4.80;99.90
18950;DHT22;9608;49.288;8.130;2022-11-20T05:56:11;4.90;99.90
18950;DHT22;9608;49.288;8.130;2022-11-20T05:58:39;4.90;99.90
18950;DHT22;9608;49.288;8.130;2022-11-20T06:01:08;5.00;99.90
18950;DHT22;9608;49.288;8.130;2022-11-20T06:03:35;5.00;99.90
18950;DHT22;9608;49.288;8.130;2022-11-20T06:06:04;5.00;99.90
18950;DHT22;9608;49.288;8.130;2022-11-20T06:08:32;5.00;99.90
18950;DHT22;9608;49.288;8.130;2022-11-20T06:11:02;4.90;99.90
18950;DHT22;9608;49.288;8.130;2022-11-20T06:13:29;5.00;99.90
18950;DHT22;9608;49.288;8.130;2022-11-20T06:15:55;4.90;99.90
18950;DHT22;9608;49.288;8.130;2022-11-20T06:18:22;4.90;99.90
18950;DHT22;9608;49.288;8.130;2022-11-20T06:20:49;5.00;99.90
18950;DHT22;9608;49.288;8.130;2022-11-20T06:23:17;4.90;99.90
18950;DHT22;9608;49.288;8.130;2022-11-20T06:25:43;4.90;99.90
18950;DHT22;9608;49.288;8.130;2022-11-20T06:28:10;5.00;99.90
18950;DHT22;9608;49.288;8.130;2022-11-20T06:30:37;5.00;99.90
18950;DHT22;9608;49.288;8.130;2022-11-20T06:33:03;5.10;99.90
18950;DHT22;9608;49.288;8.130;2022-11-20T06:35:30;5.10;99.90
18950;DHT22;9608;49.288;8.130;2022-11-20T06:37:57;5.30;99.90
18950;DHT22;9608;49.288;8.130;2022-11-20T06:40:25;5.40;99.90
18950;DHT22;9608;49.288;8.130;2022-11-20T06:42:53;5.50;99.90
18950;DHT22;9608;49.288;8.130;2022-11-20T06:45:21;5.70;99.90
18950;DHT22;9608;49.288;8.130;2022-11-20T06:47:47;5.80;99.90
18950;DHT22;9608;49.288;8.130;2022-11-20T06:50:14;5.90;99.90
18950;DHT22;9608;49.288;8.130;2022-11-20T06:52:41;6.10;99.90
18950;DHT22;9608;49.288;8.130;2022-11-20T06:55:08;6.30;99.90
18950;DHT22;9608;49.288;8.130;2022-11-20T06:57:38;6.40;99.90
18950;DHT22;9608;49.288;8.130;2022-11-20T07:00:06;6.50;99.90
18950;DHT22;9608;49.288;8.130;2022-11-20T07:02:32;6.60;99.90
18950;DHT22;9608;49.288;8.130;2022-11-20T07:04:59;6.70;99.90
18950;DHT22;9608;49.288;8.130;2022-11-20T07:07:26;6.80;99.90
18950;DHT22;9608;49.288;8.130;2022-11-20T07:09:52;6.70;99.90
18950;DHT22;9608;49.288;8.130;2022-11-20T07:12:19;6.80;99.90
18950;DHT22;9608;49.288;8.130;2022-11-20T07:14:47;6.80;99.90
18950;DHT22;9608;49.288;8.130;2022-11-20T07:17:14;6.90;99.90
18950;DHT22;9608;49.288;8.130;2022-11-20T07:19:40;6.90;99.90
18950;DHT22;9608;49.288;8.130;2022-11-20T07:22:08;6.90;99.90
18950;DHT22;9608;49.288;8.130;2022-11-20T07:24:35;6.90;99.90
18950;DHT22;9608;49.288;8.130;2022-11-20T07:27:01;6.90;99.90
18950;DHT22;9608;49.288;8.130;2022-11-20T07:29:29;7.00;99.90
18950;DHT22;9608;49.288;8.130;2022-11-20T07:31:57;7.00;99.90
18950;DHT22;9608;49.288;8.130;2022-11-20T07:34:24;7.00;99.90
18950;DHT22;9608;49.288;8.130;2022-11-20T07:36:51;7.00;99.90
18950;DHT22;9608;49.288;8.130;2022-11-20T07:39:18;7.00;99.90
18950;DHT22;9608;49.288;8.130;2022-11-20T07:41:44;7.00;99.90
18950;DHT22;9608;49.288;8.130;2022-11-20T07:44:11;7.10;99.90
18950;DHT22;9608;49.288;8.130;2022-11-20T07:46:38;7.10;99.90
18950;DHT22;9608;49.288;8.130;2022-11-20T07:49:06;7.00;99.90
18950;DHT22;9608;49.288;8.130;2022-11-20T07:51:32;6.90;99.90
18950;DHT22;9608;49.288;8.130;2022-11-20T07:53:59;6.90;99.90
18950;DHT22;9608;49.288;8.130;2022-11-20T07:56:26;6.80;99.90
18950;DHT22;9608;49.288;8.130;2022-11-20T07:58:53;6.80;99.90
18950;DHT22;9608;49.288;8.130;2022-11-20T08:01:19;6.90;99.90
18950;DHT22;9608;49.288;8.130;2022-11-20T08:03:46;6.90;99.90
18950;DHT22;9608;49.288;8.130;2022-11-20T08:06:14;6.90;99.90
18950;DHT22;9608;49.288;8.130;2022-11-20T08:08:42;7.10;99.90
18950;DHT22;9608;49.288;8.130;2022-11-20T08:11:09;7.20;99.90
18950;DHT22;9608;49.288;8.130;2022-11-20T08:13:54;7.20;99.90
18950;DHT22;9608;49.288;8.130;2022-11-20T08:16:39;7.20;99.90
18950;DHT22;9608;49.288;8.130;2022-11-20T08:19:06;7.30;99.90
18950;DHT22;9608;49.288;8.130;2022-11-20T08:21:34;7.40;99.90
18950;DHT22;9608;49.288;8.130;2022-11-20T08:24:01;7.50;99.90
18950;DHT22;9608;49.288;8.130;2022-11-20T08:26:27;7.60;99.90
18950;DHT22;9608;49.288;8.130;2022-11-20T08:28:54;7.60;99.90
18950;DHT22;9608;49.288;8.130;2022-11-20T08:31:21;7.80;99.90
18950;DHT22;9608;49.288;8.130;2022-11-20T08:33:48;7.80;99.90
18950;DHT22;9608;49.288;8.130;2022-11-20T08:36:15;7.80;99.90
18950;DHT22;9608;49.288;8.130;2022-11-20T08:38:46;7.90;99.90
18950;DHT22;9608;49.288;8.130;2022-11-20T08:41:14;7.90;99.90
18950;DHT22;9608;49.288;8.130;2022-11-20T08:43:51;8.00;99.90
18950;DHT22;9608;49.288;8.130;2022-11-20T08:46:19;8.10;99.90
18950;DHT22;9608;49.288;8.130;2022-11-20T08:48:46;8.10;99.90
18950;DHT22;9608;49.288;8.130;2022-11-20T08:51:13;8.10;99.90
18950;DHT22;9608;49.288;8.130;2022-11-20T08:53:40;8.10;99.90
18950;DHT22;9608;49.288;8.130;2022-11-20T08:56:08;8.00;99.90
18950;DHT22;9608;49.288;8.130;2022-11-20T08:58:36;8.10;99.90
18950;DHT22;9608;49.288;8.130;2022-11-20T09:01:03;8.20;99.90
18950;DHT22;9608;49.288;8.130;2022-11-20T09:03:30;8.30;99.90
18950;DHT22;9608;49.288;8.130;2022-11-20T09:05:57;8.40;99.90
18950;DHT22;9608;49.288;8.130;2022-11-20T09:08:25;8.50;99.90
18950;DHT22;9608;49.288;8.130;2022-11-20T09:10:52;8.60;99.90
18950;DHT22;9608;49.288;8.130;2022-11-20T09:13:20;8.70;99.90
18950;DHT22;9608;49.288;8.130;2022-11-20T09:15:52;8.90;99.90
18950;DHT22;9608;49.288;8.130;2022-11-20T09:18:19;8.90;99.90
18950;DHT22;9608;49.288;8.130;2022-11-20T09:20:46;8.80;99.90
18950;DHT22;9608;49.288;8.130;2022-11-20T09:23:12;8.80;99.90
18950;DHT22;9608;49.288;8.130;2022-11-20T09:25:39;8.80;99.90
18950;DHT22;9608;49.288;8.130;2022-11-20T09:28:06;8.80;99.90
18950;DHT22;9608;49.288;8.130;2022-11-20T09:30:34;9.00;99.90
18950;DHT22;9608;49.288;8.130;2022-11-20T09:33:01;8.90;99.90
18950;DHT22;9608;49.288;8.130;2022-11-20T09:35:27;9.00;99.90
18950;DHT22;9608;49.288;8.130;2022-11-20T09:37:54;8.90;99.90
18950;DHT22;9608;49.288;8.130;2022-11-20T09:40:23;8.90;99.90
18950;DHT22;9608;49.288;8.130;2022-11-20T09:42:55;8.80;99.90
18950;DHT22;9608;49.288;8.130;2022-11-20T09:45:32;8.60;99.90
18950;DHT22;9608;49.288;8.130;2022-11-20T09:48:12;8.50;99.90
18950;DHT22;9608;49.288;8.130;2022-11-20T09:50:45;8.50;99.90
18950;DHT22;9608;49.288;8.130;2022-11-20T09:53:19;8.40;99.90
18950;DHT22;9608;49.288;8.130;2022-11-20T09:55:47;8.70;99.90
18950;DHT22;9608;49.288;8.130;2022-11-20T09:58:19;8.90;99.90
18950;DHT22;9608;49.288;8.130;2022-11-20T10:00:49;9.00;99.90
18950;DHT22;9608;49.288;8.130;2022-11-20T10:03:21;9.10;99.90
18950;DHT22;9608;49.288;8.130;2022-11-20T10:05:54;9.20;99.90
18950;DHT22;9608;49.288;8.130;2022-11-20T10:08:23;9.10;99.90
18950;DHT22;9608;49.288;8.130;2022-11-20T10:10:55;9.20;99.90
18950;DHT22;9608;49.288;8.130;2022-11-20T10:13:34;9.10;99.90
18950;DHT22;9608;49.288;8.130;2022-11-20T10:16:15;9.00;99.90
18950;DHT22;9608;49.288;8.130;2022-11-20T10:18:56;9.10;99.90
18950;DHT22;9608;49.288;8.130;2022-11-20T10:21:32;9.10;99.90
18950;DHT22;9608;49.288;8.130;2022-11-20T10:27:07;9.10;99.90
18950;DHT22;9608;49.288;8.130;2022-11-20T10:29:41;9.00;99.90
18950;DHT22;9608;49.288;8.130;2022-11-20T10:32:14;9.10;99.90
18950;DHT22;9608;49.288;8.130;2022-11-20T10:34:48;9.10;99.90
18950;DHT22;9608;49.288;8.130;2022-11-20T10:37:19;9.00;99.90
18950;DHT22;9608;49.288;8.130;2022-11-20T10:39:51;8.90;99.90
18950;DHT22;9608;49.288;8.130;2022-11-20T10:42:26;8.80;99.90
18950;DHT22;9608;49.288;8.130;2022-11-20T10:45:00;8.90;99.90
18950;DHT22;9608;49.288;8.130;2022-11-20T10:47:30;9.10;99.90
18950;DHT22;9608;49.288;8.130;2022-11-20T10:50:03;9.30;99.90
18950;DHT22;9608;49.288;8.130;2022-11-20T10:52:36;9.30;99.90
18950;DHT22;9608;49.288;8.130;2022-11-20T10:55:11;9.40;99.90
18950;DHT22;9608;49.288;8.130;2022-11-20T10:57:52;9.30;99.90
18950;DHT22;9608;49.288;8.130;2022-11-20T11:00:19;9.30;99.90
18950;DHT22;9608;49.288;8.130;2022-11-20T11:02:48;9.50;99.90
18950;DHT22;9608;49.288;8.130;2022-11-20T11:05:27;9.50;99.90
18950;DHT22;9608;49.288;8.130;2022-11-20T11:07:58;9.80;99.90
18950;DHT22;9608;49.288;8.130;2022-11-20T11:10:30;10.10;99.90
18950;DHT22;9608;49.288;8.130;2022-11-20T11:12:58;10.10;99.90
18950;DHT22;9608;49.288;8.130;2022-11-20T11:15:27;10.00;99.90
18950;DHT22;9608;49.288;8.130;2022-11-20T11:17:55;9.90;99.90
18950;DHT22;9608;49.288;8.130;2022-11-20T11:20:24;9.90;99.90
18950;DHT22;9608;49.288;8.130;2022-11-20T11:22:52;9.90;99.90
18950;DHT22;9608;49.288;8.130;2022-11-20T11:25:23;9.80;99.90
18950;DHT22;9608;49.288;8.130;2022-11-20T11:27:52;9.70;99.90
18950;DHT22;9608;49.288;8.130;2022-11-20T11:30:21;9.80;99.90
18950;DHT22;9608;49.288;8.130;2022-11-20T11:32:48;9.90;99.90
18950;DHT22;9608;49.288;8.130;2022-11-20T11:35:24;10.00;99.90
18950;DHT22;9608;49.288;8.130;2022-11-20T11:37:53;10.10;99.90
18950;DHT22;9608;49.288;8.130;2022-11-20T11:40:21;10.10;99.90
18950;DHT22;9608;49.288;8.130;2022-11-20T11:42:54;10.10;99.90
18950;DHT22;9608;49.288;8.130;2022-11-20T11:45:22;10.10;99.90
18950;DHT22;9608;49.288;8.130;2022-11-20T11:47:51;9.80;99.90
18950;DHT22;9608;49.288;8.130;2022-11-20T11:50:21;9.80;99.90
18950;DHT22;9608;49.288;8.130;2022-11-20T11:52:58;9.80;99.90
18950;DHT22;9608;49.288;8.130;2022-11-20T11:55:31;9.70;99.90
18950;DHT22;9608;49.288;8.130;2022-11-20T11:58:11;9.80;99.90
18950;DHT22;9608;49.288;8.130;2022-11-20T12:00:39;9.70;99.90
18950;DHT22;9608;49.288;8.130;2022-11-20T12:03:13;9.60;99.90
18950;DHT22;9608;49.288;8.130;2022-11-20T12:05:43;9.50;99.90
18950;DHT22;9608;49.288;8.130;2022-11-20T12:08:17;9.40;99.90
18950;DHT22;9608;49.288;8.130;2022-11-20T12:10:50;9.20;99.90
18950;DHT22;9608;49.288;8.130;2022-11-20T12:13:26;9.20;99.90
18950;DHT22;9608;49.288;8.130;2022-11-20T12:15:58;9.10;99.90
18950;DHT22;9608;49.288;8.130;2022-11-20T12:18:27;9.10;99.90
18950;DHT22;9608;49.288;8.130;2022-11-20T12:21:03;9.10;99.90
18950;DHT22;9608;49.288;8.130;2022-11-20T12:23:44;9.10;99.90
18950;DHT22;9608;49.288;8.130;2022-11-20T12:26:18;9.20;99.90
18950;DHT22;9608;49.288;8.130;2022-11-20T12:28:56;9.20;99.90
18950;DHT22;9608;49.288;8.130;2022-11-20T12:31:41;9.30;99.90
18950;DHT22;9608;49.288;8.130;2022-11-20T12:34:40;9.30;99.90
18950;DHT22;9608;49.288;8.130;2022-11-20T12:37:23;9.50;99.90
18950;DHT22;9608;49.288;8.130;2022-11-20T12:40:02;9.60;99.90
18950;DHT22;9608;49.288;8.130;2022-11-20T12:42:46;9.70;99.90
18950;DHT22;9608;49.288;8.130;2022-11-20T12:46:13;9.80;99.90
18950;DHT22;9608;49.288;8.130;2022-11-20T12:48:57;9.80;99.90
18950;DHT22;9608;49.288;8.130;2022-11-20T12:54:46;9.70;99.90
18950;DHT22;9608;49.288;8.130;2022-11-20T12:57:21;9.70;99.90
18950;DHT22;9608;49.288;8.130;2022-11-20T13:00:07;9.60;99.90
18950;DHT22;9608;49.288;8.130;2022-11-20T13:02:45;9.80;99.90
18950;DHT22;9608;49.288;8.130;2022-11-20T13:05:24;9.80;99.90
18950;DHT22;9608;49.288;8.130;2022-11-20T13:07:55;9.80;99.90
18950;DHT22;9608;49.288;8.130;2022-11-20T13:10:28;9.80;99.90
18950;DHT22;9608;49.288;8.130;2022-11-20T13:13:04;9.60;99.90
18950;DHT22;9608;49.288;8.130;2022-11-20T13:15:43;9.50;99.90
18950;DHT22;9608;49.288;8.130;2022-11-20T13:18:11;9.50;99.90
18950;DHT22;9608;49.288;8.130;2022-11-20T13:20:42;9.40;99.90
18950;DHT22;9608;49.288;8.130;2022-11-20T13:23:09;9.30;99.90
18950;DHT22;9608;49.288;8.130;2022-11-20T13:25:37;9.40;99.90
18950;DHT22;9608;49.288;8.130;2022-11-20T13:28:26;9.30;99.90
18950;DHT22;9608;49.288;8.130;2022-11-20T13:30:56;9.30;99.90
18950;DHT22;9608;49.288;8.130;2022-11-20T13:33:27;9.40;99.90
18950;DHT22;9608;49.288;8.130;2022-11-20T13:35:58;9.40;99.90
18950;DHT22;9608;49.288;8.130;2022-11-20T13:38:25;9.40;99.90
18950;DHT22;9608;49.288;8.130;2022-11-20T13:40:53;9.50;99.90
18950;DHT22;9608;49.288;8.130;2022-11-20T13:43:34;9.50;99.90
18950;DHT22;9608;49.288;8.130;2022-11-20T13:46:03;9.50;99.90
18950;DHT22;9608;49.288;8.130;2022-11-20T13:48:32;9.50;99.90
18950;DHT22;9608;49.288;8.130;2022-11-20T13:51:09;9.60;99.90
18950;DHT22;9608;49.288;8.130;2022-11-20T13:53:49;9.60;99.90
18950;DHT22;9608;49.288;8.130;2022-11-20T13:56:23;9.50;99.90
18950;DHT22;9608;49.288;8.130;2022-11-20T13:58:59;9.40;99.90
18950;DHT22;9608;49.288;8.130;2022-11-20T14:01:30;9.40;99.90
18950;DHT22;9608;49.288;8.130;2022-11-20T14:03:58;9.30;99.90
18950;DHT22;9608;49.288;8.130;2022-11-20T14:06:27;9.30;99.90
18950;DHT22;9608;49.288;8.130;2022-11-20T14:08:55;9.30;99.90
18950;DHT22;9608;49.288;8.130;2022-11-20T14:11:25;9.30;99.90
18950;DHT22;9608;49.288;8.130;2022-11-20T14:13:59;9.20;99.90
18950;DHT22;9608;49.288;8.130;2022-11-20T14:16:28;9.20;99.90
18950;DHT22;9608;49.288;8.130;2022-11-20T14:18:56;9.10;99.90
18950;DHT22;9608;49.288;8.130;2022-11-20T14:21:25;9.10;99.90
18950;DHT22;9608;49.288;8.130;2022-11-20T14:23:53;8.90;99.90
18950;DHT22;9608;49.288;8.130;2022-11-20T14:26:20;8.90;99.90
18950;DHT22;9608;49.288;8.130;2022-11-20T14:28:49;8.90;99.90
18950;DHT22;9608;49.288;8.130;2022-11-20T14:31:23;8.90;99.90
18950;DHT22;9608;49.288;8.130;2022-11-20T14:33:51;8.90;99.90
18950;DHT22;9608;49.288;8.130;2022-11-20T14:36:20;8.90;99.90
18950;DHT22;9608;49.288;8.130;2022-11-20T14:38:47;8.90;99.90
18950;DHT22;9608;49.288;8.130;2022-11-20T14:41:18;8.90;99.90
18950;DHT22;9608;49.288;8.130;2022-11-20T14:43:46;8.90;99.90
18950;DHT22;9608;49.288;8.130;2022-11-20T14:46:14;8.90;99.90
18950;DHT22;9608;49.288;8.130;2022-11-20T14:48:45;8.90;99.90
18950;DHT22;9608;49.288;8.130;2022-11-20T14:51:23;9.00;99.90
18950;DHT22;9608;49.288;8.130;2022-11-20T14:53:52;9.10;99.90
18950;DHT22;9608;49.288;8.130;2022-11-20T14:56:21;9.00;99.90
18950;DHT22;9608;49.288;8.130;2022-11-20T14:58:55;8.90;99.90
18950;DHT22;9608;49.288;8.130;2022-11-20T15:01:26;8.80;99.90
18950;DHT22;9608;49.288;8.130;2022-11-20T15:04:00;8.80;99.90
18950;DHT22;9608;49.288;8.130;2022-11-20T15:06:27;8.80;99.90
18950;DHT22;9608;49.288;8.130;2022-11-20T15:08:55;8.70;99.90
18950;DHT22;9608;49.288;8.130;2022-11-20T15:11:27;8.70;99.90
18950;DHT22;9608;49.288;8.130;2022-11-20T15:13:55;8.80;99.90
18950;DHT22;9608;49.288;8.130;2022-11-20T15:16:23;8.90;99.90
18950;DHT22;9608;49.288;8.130;2022-11-20T15:18:51;8.80;99.90
18950;DHT22;9608;49.288;8.130;2022-11-20T15:21:19;8.80;99.90
18950;DHT22;9608;49.288;8.130;2022-11-20T15:23:47;8.70;99.90
18950;DHT22;9608;49.288;8.130;2022-11-20T15:26:20;8.70;99.90
18950;DHT22;9608;49.288;8.130;2022-11-20T15:28:48;8.70;99.90
18950;DHT22;9608;49.288;8.130;2022-11-20T15:31:16;8.70;99.90
18950;DHT22;9608;49.288;8.130;2022-11-20T15:33:44;8.50;99.90
18950;DHT22;9608;49.288;8.130;2022-11-20T15:36:11;8.40;99.90
18950;DHT22;9608;49.288;8.130;2022-11-20T15:38:39;8.50;99.90
18950;DHT22;9608;49.288;8.130;2022-11-20T15:41:07;8.50;99.90
18950;DHT22;9608;49.288;8.130;2022-11-20T15:43:33;8.50;99.90
18950;DHT22;9608;49.288;8.130;2022-11-20T15:46:02;8.40;99.90
18950;DHT22;9608;49.288;8.130;2022-11-20T15:48:34;8.40;99.90
18950;DHT22;9608;49.288;8.130;2022-11-20T15:51:05;8.40;99.90
18950;DHT22;9608;49.288;8.130;2022-11-20T15:53:34;8.30;99.90
18950;DHT22;9608;49.288;8.130;2022-11-20T15:56:02;8.30;99.90
18950;DHT22;9608;49.288;8.130;2022-11-20T15:58:29;8.30;99.90
18950;DHT22;9608;49.288;8.130;2022-11-20T16:01:01;8.30;99.90
18950;DHT22;9608;49.288;8.130;2022-11-20T16:03:29;8.30;99.90
18950;DHT22;9608;49.288;8.130;2022-11-20T16:05:59;8.30;99.90
18950;DHT22;9608;49.288;8.130;2022-11-20T16:08:26;8.30;99.90
18950;DHT22;9608;49.288;8.130;2022-11-20T16:10:54;8.30;99.90
18950;DHT22;9608;49.288;8.130;2022-11-20T16:13:36;8.30;99.90
18950;DHT22;9608;49.288;8.130;2022-11-20T16:18:56;8.30;99.90
18950;DHT22;9608;49.288;8.130;2022-11-20T16:21:27;8.30;99.90
18950;DHT22;9608;49.288;8.130;2022-11-20T16:23:59;8.30;99.90
18950;DHT22;9608;49.288;8.130;2022-11-20T16:26:43;8.30;99.90